Time;durP1;ratioP1;P1;durP2;ratioP2;P2;SDS_P1;SDS_P2;PMS_P1;PMS_P2;Temp;Humidity;BMP_temperature;BMP_pressure;BME280_temperature;BME280_humidity;BME280_pressure;Samples;Min_cycle;Max_cycle;Signal;HPM_P1;HPM_P2
2021/11/02 00:00:41;;;;;;;1.97;0.67;;;7.30;99.90;;;;;;5117924;28;20073;-84
2021/11/02 00:03:07;;;;;;;1.97;0.80;;;7.40;99.90;;;;;;5096906;28;20039;-81
2021/11/02 00:05:34;;;;;;;2.40;0.70;;;7.30;99.90;;;;;;5080873;28;20020;-84
2021/11/02 00:08:00;;;;;;;2.30;0.93;;;7.20;99.90;;;;;;5098872;28;20666;-84
2021/11/02 00:10:26;;;;;;;1.23;0.50;;;7.40;99.90;;;;;;5098908;28;20099;-84
2021/11/02 00:12:52;;;;;;;1.70;0.70;;;7.50;99.90;;;;;;5081516;28;20120;-83
2021/11/02 00:15:26;;;;;;;2.97;1.07;;;7.50;99.90;;;;;;5097404;28;20159;-84
2021/11/02 00:17:55;;;;;;;1.80;0.70;;;7.50;99.90;;;;;;5100295;28;20035;-84
2021/11/02 00:20:21;;;;;;;3.13;0.90;;;7.50;99.90;;;;;;5099412;28;20024;-83
2021/11/02 00:22:57;;;;;;;2.27;0.90;;;7.40;99.90;;;;;;5110257;28;20027;-81
2021/11/02 00:25:26;;;;;;;1.73;0.73;;;7.30;99.90;;;;;;5114654;28;20031;-84
2021/11/02 00:27:52;;;;;;;2.07;0.77;;;7.30;99.90;;;;;;5095788;28;20020;-83
2021/11/02 00:30:19;;;;;;;2.83;0.83;;;7.30;99.90;;;;;;5090956;28;20115;-84
2021/11/02 00:32:47;;;;;;;2.33;0.80;;;7.20;99.90;;;;;;5090550;28;20020;-84
2021/11/02 00:35:14;;;;;;;2.97;0.93;;;7.30;99.90;;;;;;5106083;28;20088;-84
2021/11/02 00:37:40;;;;;;;1.70;0.63;;;7.20;99.90;;;;;;5119424;28;20608;-85
2021/11/02 00:40:08;;;;;;;2.87;1.27;;;7.30;99.90;;;;;;5100985;28;20035;-84
2021/11/02 00:42:38;;;;;;;3.13;1.00;;;7.20;99.90;;;;;;5119024;28;20047;-85
2021/11/02 00:45:09;;;;;;;1.83;0.83;;;7.20;99.90;;;;;;5118769;28;20028;-84
2021/11/02 00:47:35;;;;;;;2.03;0.93;;;7.20;99.90;;;;;;5101529;28;20035;-85
2021/11/02 00:50:09;;;;;;;1.57;0.80;;;7.20;99.90;;;;;;5118083;28;20024;-85
2021/11/02 00:52:35;;;;;;;1.60;0.77;;;7.20;99.90;;;;;;5110144;28;20107;-83
2021/11/02 00:55:01;;;;;;;2.07;0.80;;;7.20;99.90;;;;;;5097538;28;20418;-85
2021/11/02 00:57:27;;;;;;;3.73;0.60;;;7.20;99.90;;;;;;5099452;28;20042;-85
2021/11/02 00:59:52;;;;;;;1.63;0.60;;;7.20;99.90;;;;;;5080170;28;20020;-83
2021/11/02 01:02:18;;;;;;;2.43;0.80;;;7.20;99.90;;;;;;5098796;28;20024;-84
2021/11/02 01:04:46;;;;;;;3.13;0.60;;;7.20;99.90;;;;;;5110624;28;20116;-85
2021/11/02 01:07:11;;;;;;;0.70;0.40;;;7.30;99.90;;;;;;5117745;28;20047;-85
2021/11/02 01:09:37;;;;;;;1.70;0.60;;;7.30;99.90;;;;;;5115072;28;20480;-84
2021/11/02 01:12:03;;;;;;;1.13;0.50;;;7.30;99.90;;;;;;5114355;28;20102;-85
2021/11/02 01:14:29;;;;;;;1.90;0.50;;;7.40;99.90;;;;;;5118776;28;20047;-84
2021/11/02 01:16:55;;;;;;;2.27;1.00;;;7.40;99.90;;;;;;5120191;28;20098;-85
2021/11/02 01:19:21;;;;;;;2.23;0.53;;;7.40;99.90;;;;;;5100707;28;20520;-85
2021/11/02 01:21:46;;;;;;;1.33;0.50;;;7.40;99.90;;;;;;5099886;28;20061;-85
2021/11/02 01:24:12;;;;;;;2.87;0.87;;;7.40;99.90;;;;;;5106792;28;20031;-84
2021/11/02 01:26:38;;;;;;;2.73;0.60;;;7.40;99.90;;;;;;5105784;28;20023;-85
2021/11/02 01:29:03;;;;;;;1.90;0.70;;;7.40;99.90;;;;;;5101940;28;20016;-84
2021/11/02 01:31:29;;;;;;;2.87;0.60;;;7.20;99.90;;;;;;5097043;28;20093;-84
2021/11/02 01:33:55;;;;;;;1.73;0.57;;;7.40;99.90;;;;;;5107854;28;20024;-84
2021/11/02 01:36:20;;;;;;;1.20;0.50;;;7.40;99.90;;;;;;5099442;28;20023;-84
2021/11/02 01:38:46;;;;;;;2.13;0.53;;;7.40;99.90;;;;;;5107601;28;20028;-83
2021/11/02 01:41:15;;;;;;;1.83;0.43;;;7.30;99.90;;;;;;5109470;28;20042;-83
2021/11/02 01:43:41;;;;;;;1.67;0.53;;;7.40;99.90;;;;;;5097042;28;20526;-84
2021/11/02 01:46:21;;;;;;;4.33;0.70;;;7.40;99.90;;;;;;5108061;28;20035;-84
2021/11/02 01:48:49;;;;;;;1.57;0.50;;;7.40;99.90;;;;;;5082939;28;20095;-83
2021/11/02 01:51:15;;;;;;;3.00;0.73;;;7.30;99.90;;;;;;5096092;28;20031;-84
2021/11/02 01:53:40;;;;;;;1.90;0.40;;;7.40;99.90;;;;;;5118630;28;20028;-83
2021/11/02 01:56:06;;;;;;;1.77;0.40;;;7.40;99.90;;;;;;5098670;28;20442;-83
2021/11/02 01:58:31;;;;;;;2.87;0.80;;;7.40;99.90;;;;;;5108247;28;20036;-85
2021/11/02 02:01:00;;;;;;;2.53;0.43;;;7.30;99.90;;;;;;5115391;28;20034;-84
2021/11/02 02:03:48;;;;;;;1.37;0.57;;;7.30;99.90;;;;;;5118207;28;20027;-85
2021/11/02 02:06:41;;;;;;;1.00;0.50;;;7.30;99.90;;;;;;5075078;28;20032;-84
2021/11/02 02:09:31;;;;;;;2.17;0.50;;;7.30;99.90;;;;;;5118298;28;20027;-84
2021/11/02 02:12:10;;;;;;;6.07;0.60;;;7.10;99.90;;;;;;5117159;28;20040;-82
2021/11/02 02:15:02;;;;;;;1.23;0.40;;;7.30;99.90;;;;;;5117659;28;20023;-82
2021/11/02 02:17:34;;;;;;;1.35;0.40;;;7.40;99.90;;;;;;5116735;28;20055;-83
2021/11/02 02:20:21;;;;;;;1.13;0.38;;;7.40;99.90;;;;;;5116299;28;20028;-83
2021/11/02 02:23:07;;;;;;;2.20;0.50;;;7.30;99.90;;;;;;5116992;28;20032;-83
2021/11/02 02:26:02;;;;;;;1.00;0.60;;;7.10;99.90;;;;;;5116498;28;20114;-82
2021/11/02 02:28:38;;;;;;;1.40;0.30;;;7.30;99.90;;;;;;5117270;28;20106;-83
2021/11/02 02:31:07;;;;;;;1.77;0.30;;;7.30;99.90;;;;;;5097848;28;20015;-84
2021/11/02 02:33:44;;;;;;;0.93;0.30;;;7.20;99.90;;;;;;5118020;28;20023;-83
2021/11/02 02:36:10;;;;;;;1.20;0.37;;;7.20;99.90;;;;;;5117155;28;20030;-83
2021/11/02 02:38:40;;;;;;;2.60;0.40;;;7.20;99.90;;;;;;5117417;28;20028;-83
2021/11/02 02:41:06;;;;;;;1.70;0.50;;;7.20;99.90;;;;;;5119276;28;20035;-82
2021/11/02 02:43:36;;;;;;;2.47;0.70;;;7.20;99.90;;;;;;5099919;28;20398;-83
2021/11/02 02:46:02;;;;;;;2.27;0.33;;;7.10;99.90;;;;;;5119278;28;20054;-82
2021/11/02 02:48:30;;;;;;;1.20;0.40;;;7.10;99.90;;;;;;5088389;28;20035;-83
2021/11/02 02:50:57;;;;;;;1.07;0.40;;;7.10;99.90;;;;;;5110556;28;20032;-83
2021/11/02 02:53:24;;;;;;;1.30;0.40;;;7.10;99.90;;;;;;5099053;28;20027;-83
2021/11/02 02:55:53;;;;;;;0.97;0.30;;;7.10;99.90;;;;;;5118307;28;20015;-83
2021/11/02 02:58:19;;;;;;;2.67;0.40;;;7.10;99.90;;;;;;5102988;28;20024;-84
2021/11/02 03:00:47;;;;;;;2.30;0.60;;;7.10;99.90;;;;;;5096604;28;20088;-84
2021/11/02 03:03:13;;;;;;;2.30;0.60;;;7.00;99.90;;;;;;5082173;28;20024;-84
2021/11/02 03:05:40;;;;;;;2.80;0.40;;;7.00;99.90;;;;;;5100606;28;20017;-83
2021/11/02 03:08:06;;;;;;;4.87;0.47;;;7.00;99.90;;;;;;5091923;28;20024;-83
2021/11/02 03:10:31;;;;;;;4.27;0.40;;;7.00;99.90;;;;;;5109732;28;20016;-83
2021/11/02 03:13:02;;;;;;;0.70;0.30;;;7.00;99.90;;;;;;5118300;28;20360;-83
2021/11/02 04:00:33;;;;;;;2.37;0.50;;;6.80;99.90;;;;;;5065443;28;20029;-85
2021/11/02 04:46:22;;;;;;;1.87;0.50;;;6.50;99.90;;;;;;5070760;28;20110;-86
2021/11/02 05:08:19;;;;;;;3.30;0.40;;;6.40;99.90;;;;;;5052629;28;20040;-86
2021/11/02 05:11:21;;;;;;;0.60;0.30;;;6.20;99.90;;;;;;5035569;28;20116;-86
2021/11/02 05:47:09;;;;;;;3.83;0.50;;;5.80;99.90;;;;;;5074196;28;20869;-85
2021/11/02 06:00:02;;;;;;;0.80;0.43;;;5.90;99.90;;;;;;5073427;28;20169;-87
2021/11/02 06:02:44;;;;;;;1.90;0.70;;;5.80;99.90;;;;;;5053504;28;20066;-85
2021/11/02 06:08:22;;;;;;;2.03;0.47;;;5.70;99.90;;;;;;5067409;28;20412;-85
2021/11/02 06:11:05;;;;;;;3.90;0.53;;;5.70;99.90;;;;;;5051357;28;20027;-86
2021/11/02 06:30:31;;;;;;;1.37;0.63;;;5.70;99.90;;;;;;5070129;28;20035;-85
2021/11/02 06:39:23;;;;;;;1.20;0.43;;;5.70;99.90;;;;;;5068744;28;20025;-84
2021/11/02 06:44:26;;;;;;;1.33;0.50;;;5.80;99.90;;;;;;5069191;28;20023;-84
2021/11/02 06:49:57;;;;;;;1.67;0.50;;;5.80;99.90;;;;;;5068530;28;20460;-84
2021/11/02 07:11:02;;;;;;;1.73;0.50;;;6.00;99.90;;;;;;5068842;28;20039;-84
2021/11/02 07:20:43;;;;;;;0.93;0.43;;;6.10;99.90;;;;;;5064073;28;20029;-85
2021/11/02 07:28:27;;;;;;;2.40;0.50;;;6.20;99.90;;;;;;5072377;28;20028;-84
2021/11/02 08:47:20;;;;;;;1.33;0.40;;;8.70;99.90;;;;;;5069777;28;20035;-84
2021/11/02 08:49:48;;;;;;;1.83;0.50;;;8.70;99.90;;;;;;5049623;28;20147;-85
2021/11/02 08:52:17;;;;;;;1.23;0.50;;;8.70;99.90;;;;;;5083397;28;20295;-83
2021/11/02 08:54:45;;;;;;;1.90;0.40;;;8.70;99.90;;;;;;5069879;28;20530;-84
2021/11/02 08:57:11;;;;;;;1.20;0.57;;;8.60;99.90;;;;;;5066235;28;20032;-84
2021/11/02 08:59:37;;;;;;;1.60;0.60;;;8.60;99.90;;;;;;5042933;28;20025;-84
2021/11/02 09:02:08;;;;;;;1.17;0.60;;;8.60;99.90;;;;;;5070239;28;20032;-85
2021/11/02 09:04:43;;;;;;;2.43;0.90;;;8.60;99.90;;;;;;5051073;28;20124;-85
2021/11/02 09:07:11;;;;;;;1.00;0.55;;;8.60;99.90;;;;;;5081788;28;20028;-84
2021/11/02 09:09:40;;;;;;;2.07;0.30;;;8.60;99.90;;;;;;5049544;28;20594;-84
2021/11/02 09:12:07;;;;;;;0.63;0.35;;;8.60;99.90;;;;;;5050436;28;20112;-84
2021/11/02 09:14:38;;;;;;;1.97;0.90;;;8.50;99.90;;;;;;5051079;28;20027;-84
2021/11/02 09:17:06;;;;;;;1.43;0.60;;;8.50;99.90;;;;;;5050927;28;20031;-84
2021/11/02 09:19:37;;;;;;;2.17;0.50;;;8.50;99.90;;;;;;5049121;28;20021;-85
2021/11/02 09:22:10;;;;;;;1.83;0.57;;;8.40;99.90;;;;;;5048390;28;20030;-84
2021/11/02 09:24:42;;;;;;;1.60;0.40;;;8.40;99.90;;;;;;5051006;28;20116;-85
2021/11/02 09:27:07;;;;;;;0.80;0.40;;;8.30;99.90;;;;;;5050809;28;20020;-85
2021/11/02 09:29:36;;;;;;;1.23;0.30;;;8.20;99.90;;;;;;5048108;28;20036;-85
2021/11/02 09:32:04;;;;;;;0.60;0.27;;;8.20;99.90;;;;;;5067160;28;20028;-84
2021/11/02 09:34:30;;;;;;;2.40;0.40;;;8.10;99.90;;;;;;5068503;28;20024;-84
2021/11/02 09:37:12;;;;;;;1.87;0.30;;;8.00;99.90;;;;;;5049642;28;20108;-84
2021/11/02 09:39:41;;;;;;;0.87;0.60;;;7.90;99.90;;;;;;5048493;28;20471;-85
2021/11/02 09:42:25;;;;;;;2.00;0.40;;;7.80;99.90;;;;;;5048792;28;20021;-85
2021/11/02 09:45:08;;;;;;;1.23;0.60;;;7.90;99.90;;;;;;5066684;28;20040;-84
2021/11/02 09:47:36;;;;;;;1.93;0.40;;;7.80;99.90;;;;;;5067462;28;20029;-84
2021/11/02 09:50:24;;;;;;;0.97;0.30;;;7.90;99.90;;;;;;5066497;28;20025;-84
2021/11/02 09:52:56;;;;;;;1.03;0.40;;;7.90;99.90;;;;;;5069065;28;20020;-84
2021/11/02 09:55:39;;;;;;;1.88;0.60;;;7.90;99.90;;;;;;5051070;28;20025;-84
2021/11/02 09:58:26;;;;;;;3.07;0.40;;;8.00;99.90;;;;;;5046929;28;20043;-84
2021/11/02 10:01:04;;;;;;;1.33;0.47;;;8.00;99.90;;;;;;5037931;28;20036;-84
2021/11/02 10:03:46;;;;;;;1.33;0.50;;;8.10;99.90;;;;;;5047746;28;20020;-84
2021/11/02 10:06:27;;;;;;;4.63;0.50;;;8.00;99.90;;;;;;5047066;28;20039;-84
2021/11/02 10:09:00;;;;;;;2.07;0.43;;;8.10;99.90;;;;;;5046284;28;20121;-84
2021/11/02 10:11:25;;;;;;;0.40;0.20;;;8.10;99.90;;;;;;5047621;28;20020;-85
2021/11/02 10:14:15;;;;;;;1.53;0.43;;;8.10;99.90;;;;;;5047303;28;20028;-83
2021/11/02 10:17:04;;;;;;;3.57;0.47;;;8.10;99.90;;;;;;5066706;28;20020;-83
2021/11/02 10:20:03;;;;;;;1.17;0.40;;;8.10;99.90;;;;;;5047989;28;20689;-83
2021/11/02 10:22:53;;;;;;;0.97;0.30;;;8.10;99.90;;;;;;5046301;28;20472;-83
2021/11/02 10:25:56;;;;;;;1.13;0.43;;;8.10;99.90;;;;;;5065573;28;20021;-85
2021/11/02 10:28:30;;;;;;;1.13;0.40;;;8.10;99.90;;;;;;5044643;28;20036;-84
2021/11/02 10:31:06;;;;;;;3.00;0.90;;;8.00;99.90;;;;;;5040734;28;20021;-84
2021/11/02 10:33:36;;;;;;;1.30;0.30;;;8.00;99.90;;;;;;5047156;28;20036;-85
2021/11/02 10:36:26;;;;;;;2.60;0.40;;;8.00;99.90;;;;;;5065981;28;20059;-83
2021/11/02 10:39:06;;;;;;;1.13;0.30;;;8.00;99.90;;;;;;5045484;28;20044;-84
2021/11/02 10:41:47;;;;;;;1.03;0.30;;;8.00;99.90;;;;;;5064770;28;20543;-85
2021/11/02 10:44:25;;;;;;;1.35;0.32;;;8.00;99.90;;;;;;5044417;28;20163;-85
2021/11/02 10:47:03;;;;;;;1.03;0.40;;;7.90;99.90;;;;;;5065259;28;20025;-84
2021/11/02 10:49:34;;;;;;;1.23;0.60;;;8.00;99.90;;;;;;5048802;28;20032;-85
2021/11/02 10:52:12;;;;;;;3.88;0.70;;;8.00;99.90;;;;;;5068094;28;20579;-84
2021/11/02 10:55:12;;;;;;;3.33;0.60;;;8.00;99.90;;;;;;5065015;28;20097;-84
2021/11/02 10:58:17;;;;;;;2.43;0.40;;;8.10;99.90;;;;;;5048727;28;20024;-84
2021/11/02 11:00:46;;;;;;;0.90;0.40;;;8.10;99.90;;;;;;5046740;28;20119;-84
2021/11/02 11:03:13;;;;;;;0.90;0.33;;;8.10;99.90;;;;;;5062816;28;20111;-84
2021/11/02 11:05:45;;;;;;;2.97;0.50;;;8.20;99.90;;;;;;5069849;28;20507;-84
2021/11/02 11:08:14;;;;;;;1.00;0.20;;;8.20;99.90;;;;;;5051972;28;20103;-84
2021/11/02 11:10:43;;;;;;;2.53;0.70;;;8.30;99.90;;;;;;5067617;28;20196;-84
2021/11/02 11:13:10;;;;;;;0.60;0.30;;;8.20;99.90;;;;;;5050245;28;20021;-84
2021/11/02 11:15:36;;;;;;;2.17;0.30;;;8.20;99.90;;;;;;5051244;28;20040;-85
2021/11/02 11:18:07;;;;;;;1.73;0.27;;;8.20;99.90;;;;;;5053084;28;20046;-84
2021/11/02 11:20:35;;;;;;;1.58;0.65;;;8.20;99.90;;;;;;5048911;28;20086;-85
2021/11/02 11:23:06;;;;;;;1.50;0.40;;;8.20;99.90;;;;;;5070878;28;20393;-85
2021/11/02 11:25:57;;;;;;;0.73;0.30;;;8.30;99.90;;;;;;5053317;28;20036;-85
2021/11/02 11:28:24;;;;;;;1.83;0.40;;;8.40;99.90;;;;;;5051540;28;20029;-84
2021/11/02 11:30:57;;;;;;;2.33;0.50;;;8.40;99.90;;;;;;5070182;28;20020;-83
2021/11/02 11:33:27;;;;;;;1.43;0.40;;;8.50;99.90;;;;;;5086731;28;20043;-83
2021/11/02 11:35:59;;;;;;;1.40;0.50;;;8.50;99.90;;;;;;5052768;28;20028;-84
2021/11/02 11:38:35;;;;;;;1.57;0.43;;;8.60;99.90;;;;;;5051258;28;20116;-85
2021/11/02 11:41:04;;;;;;;1.07;0.40;;;8.70;99.90;;;;;;5050658;28;20086;-85
2021/11/02 11:43:32;;;;;;;1.33;0.53;;;8.70;99.90;;;;;;5068142;28;20516;-85
2021/11/02 11:46:01;;;;;;;0.82;0.50;;;8.80;99.90;;;;;;5069925;28;20131;-85
2021/11/02 11:48:27;;;;;;;0.37;0.20;;;8.90;99.90;;;;;;5050165;28;20133;-85
2021/11/02 11:51:00;;;;;;;0.50;0.20;;;9.00;99.90;;;;;;5071036;28;20033;-86
2021/11/02 11:53:27;;;;;;;0.87;0.30;;;9.10;99.90;;;;;;5054359;28;20426;-85
2021/11/02 11:56:08;;;;;;;0.50;0.20;;;9.30;99.90;;;;;;5072342;28;20021;-85
2021/11/02 11:58:34;;;;;;;1.00;0.30;;;9.40;99.90;;;;;;5072434;28;20054;-85
2021/11/02 12:01:34;;;;;;;1.50;0.37;;;9.60;99.90;;;;;;5072068;28;20044;-85
2021/11/02 12:04:21;;;;;;;1.15;0.25;;;9.60;99.90;;;;;;5037477;28;20029;-84
2021/11/02 12:07:02;;;;;;;0.60;0.20;;;9.60;99.90;;;;;;5072760;28;20101;-84
2021/11/02 12:09:38;;;;;;;0.13;0.07;;;9.50;99.90;;;;;;5054489;28;20039;-85
2021/11/02 12:12:06;;;;;;;0.10;0.03;;;9.40;99.90;;;;;;5054105;28;20100;-85
2021/11/02 12:14:41;;;;;;;0.60;0.10;;;9.40;99.90;;;;;;5052262;28;20634;-85
2021/11/02 12:17:17;;;;;;;0.20;0.10;;;9.40;99.90;;;;;;5069356;28;20120;-84
2021/11/02 12:20:04;;;;;;;0.67;0.17;;;9.30;99.90;;;;;;5065808;28;20051;-85
2021/11/02 12:22:52;;;;;;;0.10;0.03;;;9.40;99.90;;;;;;5070084;28;20027;-84
2021/11/02 12:25:26;;;;;;;0.52;0.10;;;9.40;99.90;;;;;;5068821;28;20046;-85
2021/11/02 12:27:52;;;;;;;0.00;0.00;;;9.50;99.90;;;;;;5052566;28;20028;-85
2021/11/02 12:30:20;;;;;;;0.13;0.00;;;9.40;99.90;;;;;;5054534;28;20016;-85
2021/11/02 12:32:56;;;;;;;0.10;0.10;;;9.40;99.90;;;;;;5052730;28;20032;-85
2021/11/02 12:35:24;;;;;;;0.20;0.00;;;9.30;99.90;;;;;;5050875;28;20112;-85
2021/11/02 12:37:56;;;;;;;0.00;0.00;;;9.30;99.90;;;;;;5043269;28;20040;-85
2021/11/02 12:40:34;;;;;;;0.00;0.00;;;9.20;99.90;;;;;;5051362;28;20418;-85
2021/11/02 12:43:00;;;;;;;0.10;0.00;;;9.20;99.90;;;;;;5051495;28;20274;-84
2021/11/02 12:45:28;;;;;;;0.20;0.10;;;9.10;99.90;;;;;;5053441;28;20449;-84
2021/11/02 12:47:59;;;;;;;0.13;0.03;;;9.10;99.90;;;;;;5053398;28;20031;-85
2021/11/02 12:50:36;;;;;;;0.23;0.20;;;9.10;99.90;;;;;;5067761;28;20037;-85
2021/11/02 12:53:02;;;;;;;0.10;0.00;;;9.10;99.90;;;;;;5060053;28;20055;-85
2021/11/02 12:55:34;;;;;;;0.67;0.00;;;9.10;99.90;;;;;;5052957;28;20012;-85
2021/11/02 12:58:12;;;;;;;0.00;0.00;;;9.20;99.90;;;;;;5051462;28;20077;-85
2021/11/02 13:00:53;;;;;;;0.27;0.00;;;9.30;99.90;;;;;;5065896;28;20814;-85
2021/11/02 13:03:24;;;;;;;0.00;0.00;;;9.60;99.90;;;;;;5050609;28;20032;-84
2021/11/02 13:06:06;;;;;;;0.03;0.00;;;10.00;99.90;;;;;;5068159;28;20035;-85
2021/11/02 13:08:38;;;;;;;0.10;0.00;;;10.30;99.90;;;;;;5069638;28;20788;-85
2021/11/02 13:11:18;;;;;;;0.25;0.03;;;10.40;99.90;;;;;;5069940;28;20028;-85
2021/11/02 13:14:02;;;;;;;0.10;0.10;;;10.30;99.90;;;;;;5052200;28;20111;-86
2021/11/02 13:16:30;;;;;;;0.17;0.10;;;10.30;99.90;;;;;;5049061;28;20133;-86
2021/11/02 13:18:55;;;;;;;0.00;0.00;;;10.30;99.90;;;;;;5069799;28;20078;-83
2021/11/02 13:21:33;;;;;;;0.10;0.00;;;10.10;99.90;;;;;;5051431;28;20059;-83
2021/11/02 13:24:21;;;;;;;0.13;0.00;;;10.00;99.90;;;;;;5065978;28;20040;-86
2021/11/02 13:26:50;;;;;;;0.00;0.00;;;9.90;99.90;;;;;;5065395;28;20028;-84
2021/11/02 13:29:27;;;;;;;0.03;0.00;;;9.80;99.90;;;;;;5050782;28;20029;-84
2021/11/02 13:31:56;;;;;;;0.20;0.00;;;9.80;99.90;;;;;;5065317;28;20043;-84
2021/11/02 13:34:33;;;;;;;0.05;0.05;;;9.70;99.90;;;;;;5050224;28;20020;-83
2021/11/02 13:37:03;;;;;;;0.82;0.05;;;9.60;99.90;;;;;;5049645;28;20090;-84
2021/11/02 13:39:29;;;;;;;0.63;0.10;;;9.50;99.90;;;;;;5047596;28;20020;-83
2021/11/02 13:41:55;;;;;;;0.00;0.00;;;9.40;99.90;;;;;;5049703;28;20025;-84
2021/11/02 13:44:22;;;;;;;0.68;0.10;;;9.30;99.90;;;;;;5069952;28;20039;-84
2021/11/02 13:46:53;;;;;;;0.30;0.08;;;9.20;99.90;;;;;;5050378;28;20127;-84
2021/11/02 13:49:20;;;;;;;0.10;0.00;;;9.20;99.90;;;;;;5051084;28;20021;-84
2021/11/02 13:51:51;;;;;;;0.10;0.00;;;9.10;99.90;;;;;;5059184;28;20028;-83
2021/11/02 13:54:17;;;;;;;0.73;0.20;;;9.10;99.90;;;;;;5067928;28;20024;-84
2021/11/02 13:56:45;;;;;;;0.30;0.10;;;9.10;99.90;;;;;;5070582;28;20024;-84
2021/11/02 13:59:12;;;;;;;0.25;0.00;;;9.10;99.90;;;;;;5051169;28;20568;-84
2021/11/02 14:01:50;;;;;;;0.10;0.10;;;9.10;99.90;;;;;;5067290;28;20025;-83
2021/11/02 14:04:24;;;;;;;0.53;0.10;;;8.90;99.90;;;;;;5051677;28;20466;-84
2021/11/02 14:07:01;;;;;;;0.37;0.10;;;8.90;99.90;;;;;;5068116;28;20024;-84
2021/11/02 14:09:29;;;;;;;0.00;0.00;;;9.00;99.90;;;;;;5048611;28;20032;-83
2021/11/02 14:11:56;;;;;;;0.30;0.00;;;9.30;99.90;;;;;;5069394;28;20057;-84
2021/11/02 14:14:35;;;;;;;0.43;0.10;;;9.60;99.90;;;;;;5069321;28;20047;-83
2021/11/02 14:17:21;;;;;;;0.77;0.20;;;10.30;99.90;;;;;;5050775;28;20016;-83
2021/11/02 14:19:52;;;;;;;0.10;0.03;;;10.80;99.90;;;;;;5049612;28;20477;-83
2021/11/02 14:22:52;;;;;;;0.00;0.00;;;11.00;99.90;;;;;;5066437;28;20044;-83
2021/11/02 14:25:19;;;;;;;0.43;0.10;;;10.70;99.90;;;;;;5034328;28;20101;-83
2021/11/02 14:27:49;;;;;;;0.00;0.00;;;10.40;99.90;;;;;;5049741;28;20028;-83
2021/11/02 14:30:32;;;;;;;0.10;0.00;;;10.10;99.90;;;;;;5051112;28;20074;-83
2021/11/02 14:32:58;;;;;;;0.03;0.00;;;9.80;99.90;;;;;;5048878;28;20023;-83
2021/11/02 14:35:49;;;;;;;0.85;0.10;;;9.70;99.90;;;;;;5051878;28;20024;-83
2021/11/02 14:38:16;;;;;;;0.43;0.10;;;9.50;99.90;;;;;;5069752;28;20032;-83
2021/11/02 14:40:47;;;;;;;0.80;0.20;;;9.40;99.90;;;;;;5068931;28;20103;-83
2021/11/02 14:43:13;;;;;;;0.10;0.10;;;9.60;99.90;;;;;;5064111;28;20599;-83
2021/11/02 14:45:42;;;;;;;0.45;0.10;;;9.90;99.90;;;;;;5087273;28;20036;-84
2021/11/02 14:48:27;;;;;;;0.40;0.10;;;10.00;99.90;;;;;;5102235;28;20062;-83
2021/11/02 14:51:06;;;;;;;0.00;0.00;;;9.70;99.90;;;;;;5069196;28;20012;-84
2021/11/02 14:53:36;;;;;;;0.90;0.10;;;9.60;99.90;;;;;;5048842;28;20055;-83
2021/11/02 14:56:16;;;;;;;0.22;0.10;;;9.60;99.90;;;;;;5050303;28;20533;-84
2021/11/02 14:58:47;;;;;;;0.20;0.10;;;9.50;99.90;;;;;;5051034;28;20029;-83
2021/11/02 15:01:34;;;;;;;0.70;0.00;;;9.50;99.90;;;;;;5049496;28;20131;-83
2021/11/02 15:04:06;;;;;;;0.10;0.10;;;9.50;99.90;;;;;;5027006;28;20169;-83
2021/11/02 15:06:38;;;;;;;0.32;0.10;;;9.40;99.90;;;;;;5049024;28;20604;-84
2021/11/02 15:09:16;;;;;;;0.22;0.00;;;9.20;99.90;;;;;;5067030;28;20041;-83
2021/11/02 15:11:43;;;;;;;0.30;0.10;;;9.10;99.90;;;;;;5064420;28;20083;-86
2021/11/02 15:14:22;;;;;;;0.20;0.00;;;9.10;99.90;;;;;;5065612;28;20121;-86
2021/11/02 15:16:50;;;;;;;0.10;0.00;;;9.00;99.90;;;;;;5066884;28;20021;-85
2021/11/02 15:19:17;;;;;;;0.20;0.10;;;8.90;99.90;;;;;;5067665;28;20033;-85
2021/11/02 15:21:52;;;;;;;0.10;0.00;;;8.90;99.90;;;;;;5065145;28;20392;-85
2021/11/02 15:24:32;;;;;;;0.27;0.00;;;8.70;99.90;;;;;;5068107;28;20031;-85
2021/11/02 15:27:03;;;;;;;1.50;0.10;;;8.60;99.90;;;;;;5050910;28;20489;-85
2021/11/02 15:29:32;;;;;;;0.37;0.10;;;8.60;99.90;;;;;;5046525;28;20025;-86
2021/11/02 15:31:58;;;;;;;0.10;0.00;;;8.50;99.90;;;;;;5050383;28;20016;-85
2021/11/02 15:35:10;;;;;;;0.30;0.10;;;8.50;99.90;;;;;;5040715;28;20025;-86
2021/11/02 15:37:46;;;;;;;0.93;0.10;;;8.40;99.90;;;;;;4986268;28;20590;-85
2021/11/02 15:40:20;;;;;;;0.13;0.00;;;8.30;99.90;;;;;;4996812;28;20115;-86
2021/11/02 15:42:49;;;;;;;0.83;0.10;;;8.40;99.90;;;;;;5029171;28;20116;-85
2021/11/02 15:45:25;;;;;;;0.43;0.10;;;8.30;99.90;;;;;;5031984;28;20051;-85
2021/11/02 15:47:53;;;;;;;0.00;0.00;;;8.30;99.90;;;;;;5035594;28;20079;-85
2021/11/02 15:50:22;;;;;;;0.47;0.03;;;8.20;99.90;;;;;;5052251;28;20040;-85
2021/11/02 15:52:49;;;;;;;0.13;0.00;;;8.10;99.90;;;;;;5069726;28;20055;-85
2021/11/02 15:55:17;;;;;;;0.67;0.20;;;8.00;99.90;;;;;;5072945;28;20150;-85
2021/11/02 15:57:53;;;;;;;0.57;0.10;;;7.90;99.90;;;;;;5072054;28;20362;-85
2021/11/02 16:00:23;;;;;;;0.80;0.20;;;7.90;99.90;;;;;;5071277;28;20115;-85
2021/11/02 16:02:48;;;;;;;0.10;0.10;;;7.90;99.90;;;;;;5070417;28;20024;-85
2021/11/02 16:05:18;;;;;;;0.27;0.00;;;7.90;99.90;;;;;;5052941;28;20389;-86
2021/11/02 16:07:44;;;;;;;0.37;0.10;;;7.90;99.90;;;;;;5052489;28;20016;-84
2021/11/02 16:10:12;;;;;;;0.17;0.10;;;7.90;99.90;;;;;;5045945;28;20025;-85
2021/11/02 16:12:40;;;;;;;0.70;0.10;;;7.80;99.90;;;;;;5064888;28;20024;-85
2021/11/02 16:15:06;;;;;;;0.50;0.10;;;7.70;99.90;;;;;;5053575;28;20090;-85
2021/11/02 16:17:50;;;;;;;1.07;0.20;;;7.70;99.90;;;;;;5049491;28;20536;-85
2021/11/02 16:20:37;;;;;;;0.70;0.20;;;7.60;99.90;;;;;;5049651;28;20035;-85
2021/11/02 16:23:06;;;;;;;0.67;0.10;;;7.60;99.90;;;;;;5052410;28;20024;-85
2021/11/02 16:25:34;;;;;;;0.70;0.17;;;7.60;99.90;;;;;;5050857;28;20067;-85
2021/11/02 16:28:04;;;;;;;0.47;0.23;;;7.50;99.90;;;;;;5069504;28;20028;-85
2021/11/02 16:30:53;;;;;;;0.47;0.20;;;7.40;99.90;;;;;;5052705;28;20021;-85
2021/11/02 16:33:33;;;;;;;5.10;0.30;;;7.40;99.90;;;;;;5070565;28;20033;-85
2021/11/02 16:36:15;;;;;;;0.30;0.10;;;7.40;99.90;;;;;;5068492;28;20024;-85
2021/11/02 16:38:41;;;;;;;0.47;0.20;;;7.40;99.90;;;;;;5050675;28;20086;-85
2021/11/02 16:41:21;;;;;;;1.33;0.50;;;7.40;99.90;;;;;;5050294;28;20087;-85
2021/11/02 16:44:00;;;;;;;1.13;0.20;;;7.40;99.90;;;;;;5052031;28;20060;-85
2021/11/02 16:46:27;;;;;;;0.17;0.10;;;7.40;99.90;;;;;;5050585;28;20033;-85
2021/11/02 16:49:26;;;;;;;0.40;0.20;;;7.40;99.90;;;;;;5075028;28;20029;-85
2021/11/02 16:51:56;;;;;;;0.10;0.10;;;7.40;99.90;;;;;;5050677;28;20024;-85
2021/11/02 16:54:29;;;;;;;0.50;0.20;;;7.50;99.90;;;;;;5053909;28;20025;-84
2021/11/02 16:57:08;;;;;;;2.37;0.20;;;7.50;99.90;;;;;;5064911;28;20032;-85
2021/11/02 16:59:40;;;;;;;0.20;0.10;;;7.50;99.90;;;;;;5069432;28;20024;-85
2021/11/02 17:02:25;;;;;;;0.70;0.20;;;7.60;99.90;;;;;;5052365;28;20476;-85
2021/11/02 17:05:02;;;;;;;0.77;0.30;;;7.60;99.90;;;;;;5068175;28;20045;-85
2021/11/02 17:08:02;;;;;;;1.07;0.20;;;7.60;99.90;;;;;;5068830;28;20026;-85
2021/11/02 17:11:01;;;;;;;1.57;0.27;;;7.70;99.90;;;;;;5048530;28;20021;-85
2021/11/02 17:13:34;;;;;;;0.80;0.30;;;7.70;99.90;;;;;;5012087;28;20094;-85
2021/11/02 17:16:04;;;;;;;3.13;0.37;;;7.70;99.90;;;;;;5066850;28;20084;-85
2021/11/02 17:18:53;;;;;;;1.67;0.40;;;7.70;99.90;;;;;;5061023;28;20025;-86
2021/11/02 17:21:22;;;;;;;0.63;0.17;;;7.70;99.90;;;;;;5065543;28;20357;-85
2021/11/02 17:23:49;;;;;;;0.73;0.20;;;7.80;99.90;;;;;;5069893;28;20107;-85
2021/11/02 17:26:16;;;;;;;2.75;0.28;;;7.80;99.90;;;;;;5070588;28;20032;-85
2021/11/02 17:28:47;;;;;;;1.23;0.40;;;7.70;99.90;;;;;;5062678;28;20028;-86
2021/11/02 17:31:38;;;;;;;0.63;0.20;;;7.70;99.90;;;;;;5050743;28;20025;-85
2021/11/02 17:34:06;;;;;;;1.77;0.43;;;7.60;99.90;;;;;;5047700;28;20564;-85
2021/11/02 17:36:35;;;;;;;1.70;0.40;;;7.70;99.90;;;;;;5034015;28;20031;-86
2021/11/02 17:39:03;;;;;;;0.63;0.20;;;7.70;99.90;;;;;;5044349;28;20051;-86
2021/11/02 17:41:31;;;;;;;1.43;0.43;;;7.50;99.90;;;;;;5052250;28;20377;-85
2021/11/02 17:43:57;;;;;;;0.37;0.20;;;7.60;99.90;;;;;;5064285;28;20024;-86
2021/11/02 17:46:22;;;;;;;0.53;0.20;;;7.50;99.90;;;;;;5064911;28;20030;-86
2021/11/02 17:48:50;;;;;;;0.30;0.13;;;7.50;99.90;;;;;;5039698;28;20029;-86
2021/11/02 17:51:15;;;;;;;0.77;0.20;;;7.50;99.90;;;;;;5068684;28;20836;-86
2021/11/02 17:53:42;;;;;;;2.57;0.57;;;7.50;99.90;;;;;;5048057;28;20029;-86
2021/11/02 17:56:13;;;;;;;1.10;0.40;;;7.40;99.90;;;;;;5042837;28;20481;-85
2021/11/02 17:58:43;;;;;;;0.87;0.50;;;7.40;99.90;;;;;;5066801;28;20033;-86
2021/11/02 18:01:10;;;;;;;0.83;0.30;;;7.30;99.90;;;;;;5047340;28;20020;-85
2021/11/02 18:03:38;;;;;;;0.63;0.20;;;7.30;99.90;;;;;;5050650;28;20551;-85
2021/11/02 18:06:07;;;;;;;4.13;0.40;;;7.30;99.90;;;;;;5067453;28;20044;-86
2021/11/02 18:08:34;;;;;;;1.00;0.40;;;7.30;99.90;;;;;;5048784;28;20034;-85
2021/11/02 18:11:03;;;;;;;3.10;0.60;;;7.30;99.90;;;;;;5047642;28;20042;-85
2021/11/02 18:13:31;;;;;;;1.63;0.60;;;7.30;99.90;;;;;;5049085;28;20028;-86
2021/11/02 18:15:59;;;;;;;2.97;0.60;;;7.20;99.90;;;;;;5065658;28;20023;-86
2021/11/02 18:18:28;;;;;;;1.80;0.60;;;7.20;99.90;;;;;;5066349;28;20094;-86